Home > Products > Valid Products > TAF

000
FTUS46 KOTX 281724
TAFPUW
TAF
KPUW 281724Z 2818/2918 24007KT P6SM SCT200
     FM290900 09005KT P6SM FEW200=



000
FTUS46 KOTX 281724
TAFSFF
TAF
KSFF 281724Z 2818/2918 22004KT P6SM SCT200=



000
FTUS46 KOTX 281724
TAFGEG
TAF
KGEG 281724Z 2818/2918 20007KT P6SM SCT200=



000
FTUS46 KOTX 281724
TAFCOE
TAF
KCOE 281724Z 2818/2918 20006KT P6SM SCT200
     FM291100 10006KT P6SM SKC
      AMD LTD TO CLD AND VIS=



000
FTUS46 KOTX 281724
TAFMWH
TAF
KMWH 281724Z 2818/2918 19006KT P6SM FEW200
     FM290900 36005KT P6SM SKC=



000
FTUS46 KOTX 281724
TAFLWS
TAF
KLWS 281724Z 2818/2918 33005KT P6SM FEW100 SCT200
     FM290900 12004KT P6SM SKC=



000
FTUS46 KOTX 281724
TAFEAT
TAF
KEAT 281724Z 2818/2918 33006KT P6SM SCT200
     FM282100 14005KT P6SM SKC
     FM290200 30007KT P6SM SKC=



000
FTUS46 KOTX 281724
TAFGEG
TAF
KGEG 281724Z 2818/2918 20007KT P6SM SCT200=



000
FTUS46 KOTX 281724
TAFLWS
TAF
KLWS 281724Z 2818/2918 33005KT P6SM FEW100 SCT200
     FM290900 12004KT P6SM SKC=



000
FTUS46 KOTX 281724
TAFCOE
TAF
KCOE 281724Z 2818/2918 20006KT P6SM SCT200
     FM291100 10006KT P6SM SKC
      AMD LTD TO CLD AND VIS=



000
FTUS46 KOTX 281724
TAFSFF
TAF
KSFF 281724Z 2818/2918 22004KT P6SM SCT200=



000
FTUS46 KOTX 281724
TAFPUW
TAF
KPUW 281724Z 2818/2918 24007KT P6SM SCT200
     FM290900 09005KT P6SM FEW200=



000
FTUS46 KOTX 281724
TAFMWH
TAF
KMWH 281724Z 2818/2918 19006KT P6SM FEW200
     FM290900 36005KT P6SM SKC=



000
FTUS46 KOTX 281724
TAFEAT
TAF
KEAT 281724Z 2818/2918 33006KT P6SM SCT200
     FM282100 14005KT P6SM SKC
     FM290200 30007KT P6SM SKC=



000
FTUS46 KOTX 281133
TAFSFF
TAF
KSFF 281133Z 2812/2912 03004KT P6SM SKC
     FM282100 23008KT P6SM SCT080 SCT120
     FM290300 VRB03KT P6SM FEW120 SCT200=



000
FTUS46 KOTX 281133
TAFMWH
TAF
KMWH 281133Z 2812/2912 28006KT P6SM SKC
     FM281800 24012KT P6SM SKC
     FM290300 22005KT P6SM SKC=



000
FTUS46 KOTX 281133
TAFLWS
TAF
KLWS 281133Z 2812/2912 08006KT P6SM SCT200=



000
FTUS46 KOTX 281133
TAFCOE
TAF
KCOE 281133Z 2812/2912 16008KT P6SM SKC
     FM282100 20006KT P6SM SCT080 SCT120
     FM290400 17004KT P6SM SCT120 BKN200
      AMD LTD TO CLD AND VIS=



000
FTUS46 KOTX 281133
TAFEAT
TAF
KEAT 281133Z 2812/2912 31010KT P6SM SKC
     FM282100 14005KT P6SM SKC
     FM290200 30007KT P6SM SKC=



000
FTUS46 KOTX 281133
TAFGEG
TAF
KGEG 281133Z 2812/2912 16008KT P6SM SKC
     FM282100 23010KT P6SM SCT070 SCT120
     FM290300 19007KT P6SM SCT200=



000
FTUS46 KOTX 281133
TAFLWS
TAF
KLWS 281133Z 2812/2912 08006KT P6SM SCT200=



000
FTUS46 KOTX 281133
TAFPUW
TAF
KPUW 281133Z 2812/2912 VRB04KT P6SM SKC
     FM282000 26007KT P6SM FEW080 SCT120
     FM290200 VRB03KT P6SM FEW200=



000
FTUS46 KOTX 281133
TAFGEG
TAF
KGEG 281133Z 2812/2912 16008KT P6SM SKC
     FM282100 23010KT P6SM SCT070 SCT120
     FM290300 19007KT P6SM SCT200=



000
FTUS46 KOTX 281133
TAFEAT
TAF
KEAT 281133Z 2812/2912 31010KT P6SM SKC
     FM282100 14005KT P6SM SKC
     FM290200 30007KT P6SM SKC=



000
FTUS46 KOTX 281133
TAFPUW
TAF
KPUW 281133Z 2812/2912 VRB04KT P6SM SKC
     FM282000 26007KT P6SM FEW080 SCT120
     FM290200 VRB03KT P6SM FEW200=



000
FTUS46 KOTX 281133
TAFMWH
TAF
KMWH 281133Z 2812/2912 28006KT P6SM SKC
     FM281800 24012KT P6SM SKC
     FM290300 22005KT P6SM SKC=



000
FTUS46 KOTX 281133
TAFCOE
TAF
KCOE 281133Z 2812/2912 16008KT P6SM SKC
     FM282100 20006KT P6SM SCT080 SCT120
     FM290400 17004KT P6SM SCT120 BKN200
      AMD LTD TO CLD AND VIS=



000
FTUS46 KOTX 281133
TAFSFF
TAF
KSFF 281133Z 2812/2912 03004KT P6SM SKC
     FM282100 23008KT P6SM SCT080 SCT120
     FM290300 VRB03KT P6SM FEW120 SCT200=



000
FTUS46 KOTX 281133
TAFLWS
TAF
KLWS 281133Z 2812/2912 08006KT P6SM SCT200=



000
FTUS46 KOTX 281133
TAFMWH
TAF
KMWH 281133Z 2812/2912 28006KT P6SM SKC
     FM281800 24012KT P6SM SKC
     FM290300 22005KT P6SM SKC=



000
FTUS46 KOTX 281133
TAFCOE
TAF
KCOE 281133Z 2812/2912 16008KT P6SM SKC
     FM282100 20006KT P6SM SCT080 SCT120
     FM290400 17004KT P6SM SCT120 BKN200
      AMD LTD TO CLD AND VIS=



000
FTUS46 KOTX 281133
TAFSFF
TAF
KSFF 281133Z 2812/2912 03004KT P6SM SKC
     FM282100 23008KT P6SM SCT080 SCT120
     FM290300 VRB03KT P6SM FEW120 SCT200=



000
FTUS46 KOTX 281133
TAFPUW
TAF
KPUW 281133Z 2812/2912 VRB04KT P6SM SKC
     FM282000 26007KT P6SM FEW080 SCT120
     FM290200 VRB03KT P6SM FEW200=



000
FTUS46 KOTX 281133
TAFGEG
TAF
KGEG 281133Z 2812/2912 16008KT P6SM SKC
     FM282100 23010KT P6SM SCT070 SCT120
     FM290300 19007KT P6SM SCT200=



000
FTUS46 KOTX 281133
TAFEAT
TAF
KEAT 281133Z 2812/2912 31010KT P6SM SKC
     FM282100 14005KT P6SM SKC
     FM290200 30007KT P6SM SKC=



000
FTUS46 KOTX 281133
TAFMWH
TAF
KMWH 281133Z 2812/2912 28006KT P6SM SKC
     FM281800 24012KT P6SM SKC
     FM290300 22005KT P6SM SKC=



000
FTUS46 KOTX 281133
TAFLWS
TAF
KLWS 281133Z 2812/2912 08006KT P6SM SCT200=



000
FTUS46 KOTX 281133
TAFEAT
TAF
KEAT 281133Z 2812/2912 31010KT P6SM SKC
     FM282100 14005KT P6SM SKC
     FM290200 30007KT P6SM SKC=



000
FTUS46 KOTX 281133
TAFCOE
TAF
KCOE 281133Z 2812/2912 16008KT P6SM SKC
     FM282100 20006KT P6SM SCT080 SCT120
     FM290400 17004KT P6SM SCT120 BKN200
      AMD LTD TO CLD AND VIS=



000
FTUS46 KOTX 281133
TAFPUW
TAF
KPUW 281133Z 2812/2912 VRB04KT P6SM SKC
     FM282000 26007KT P6SM FEW080 SCT120
     FM290200 VRB03KT P6SM FEW200=



000
FTUS46 KOTX 281133
TAFSFF
TAF
KSFF 281133Z 2812/2912 03004KT P6SM SKC
     FM282100 23008KT P6SM SCT080 SCT120
     FM290300 VRB03KT P6SM FEW120 SCT200=



000
FTUS46 KOTX 281133
TAFGEG
TAF
KGEG 281133Z 2812/2912 16008KT P6SM SKC
     FM282100 23010KT P6SM SCT070 SCT120
     FM290300 19007KT P6SM SCT200=



000
FTUS46 KOTX 280523
TAFSFF
TAF
KSFF 280523Z 2806/2906 25006KT P6SM FEW080 SCT120
     FM280900 VRB03KT P6SM VCFG SKC
     FM281500 20006KT P6SM SCT080 SCT120=



000
FTUS46 KOTX 280523
TAFCOE
TAF
KCOE 280523Z 2806/2906 17006KT P6SM FEW080 SCT120
     FM280900 16004KT P6SM VCFG SKC
     FM281500 20006KT P6SM SCT080 SCT120
      AMD LTD TO CLD AND VIS=



000
FTUS46 KOTX 280523
TAFEAT
TAF
KEAT 280523Z 2806/2906 30013KT P6SM SKC
     FM281500 30007KT P6SM SKC
     FM282100 14005KT P6SM SKC=



000
FTUS46 KOTX 280523
TAFLWS
TAF
KLWS 280523Z 2806/2906 18006KT P6SM VCSH SCT080 SCT200
     FM280800 VRB04KT P6SM SCT200
     FM281500 08006KT P6SM SCT120 SCT200=



000
FTUS46 KOTX 280523
TAFPUW
TAF
KPUW 280523Z 2806/2906 24006KT P6SM VCSH SCT080 SCT200
     FM280800 VRB04KT P6SM FEW080
     FM281500 22005KT P6SM FEW080 SCT120=



000
FTUS46 KOTX 280523
TAFGEG
TAF
KGEG 280523Z 2806/2906 22007KT P6SM FEW070 SCT120
     FM280900 19006KT P6SM VCFG SKC
     FM281500 18008KT P6SM SCT070 SCT120=



000
FTUS46 KOTX 280523
TAFMWH
TAF
KMWH 280523Z 2806/2906 32005KT P6SM SKC
     FM281500 26005KT P6SM SKC=



000
FTUS46 KOTX 280523
TAFGEG
TAF
KGEG 280523Z 2806/2906 22007KT P6SM FEW070 SCT120
     FM280900 19006KT P6SM VCFG SKC
     FM281500 18008KT P6SM SCT070 SCT120=



000
FTUS46 KOTX 280523
TAFMWH
TAF
KMWH 280523Z 2806/2906 32005KT P6SM SKC
     FM281500 26005KT P6SM SKC=



000
FTUS46 KOTX 280523
TAFLWS
TAF
KLWS 280523Z 2806/2906 18006KT P6SM VCSH SCT080 SCT200
     FM280800 VRB04KT P6SM SCT200
     FM281500 08006KT P6SM SCT120 SCT200=



000
FTUS46 KOTX 280523
TAFSFF
TAF
KSFF 280523Z 2806/2906 25006KT P6SM FEW080 SCT120
     FM280900 VRB03KT P6SM VCFG SKC
     FM281500 20006KT P6SM SCT080 SCT120=



000
FTUS46 KOTX 280523
TAFGEG
TAF
KGEG 280523Z 2806/2906 22007KT P6SM FEW070 SCT120
     FM280900 19006KT P6SM VCFG SKC
     FM281500 18008KT P6SM SCT070 SCT120=



000
FTUS46 KOTX 280523
TAFMWH
TAF
KMWH 280523Z 2806/2906 32005KT P6SM SKC
     FM281500 26005KT P6SM SKC=



000
FTUS46 KOTX 280523
TAFSFF
TAF
KSFF 280523Z 2806/2906 25006KT P6SM FEW080 SCT120
     FM280900 VRB03KT P6SM VCFG SKC
     FM281500 20006KT P6SM SCT080 SCT120=



000
FTUS46 KOTX 280523
TAFPUW
TAF
KPUW 280523Z 2806/2906 24006KT P6SM VCSH SCT080 SCT200
     FM280800 VRB04KT P6SM FEW080
     FM281500 22005KT P6SM FEW080 SCT120=



000
FTUS46 KOTX 280523
TAFEAT
TAF
KEAT 280523Z 2806/2906 30013KT P6SM SKC
     FM281500 30007KT P6SM SKC
     FM282100 14005KT P6SM SKC=



000
FTUS46 KOTX 280523
TAFCOE
TAF
KCOE 280523Z 2806/2906 17006KT P6SM FEW080 SCT120
     FM280900 16004KT P6SM VCFG SKC
     FM281500 20006KT P6SM SCT080 SCT120
      AMD LTD TO CLD AND VIS=



000
FTUS46 KOTX 280523
TAFMWH
TAF
KMWH 280523Z 2806/2906 32005KT P6SM SKC
     FM281500 26005KT P6SM SKC=



000
FTUS46 KOTX 280523
TAFEAT
TAF
KEAT 280523Z 2806/2906 30013KT P6SM SKC
     FM281500 30007KT P6SM SKC
     FM282100 14005KT P6SM SKC=



000
FTUS46 KOTX 280523
TAFLWS
TAF
KLWS 280523Z 2806/2906 18006KT P6SM VCSH SCT080 SCT200
     FM280800 VRB04KT P6SM SCT200
     FM281500 08006KT P6SM SCT120 SCT200=



000
FTUS46 KOTX 280523
TAFPUW
TAF
KPUW 280523Z 2806/2906 24006KT P6SM VCSH SCT080 SCT200
     FM280800 VRB04KT P6SM FEW080
     FM281500 22005KT P6SM FEW080 SCT120=



000
FTUS46 KOTX 280523
TAFCOE
TAF
KCOE 280523Z 2806/2906 17006KT P6SM FEW080 SCT120
     FM280900 16004KT P6SM VCFG SKC
     FM281500 20006KT P6SM SCT080 SCT120
      AMD LTD TO CLD AND VIS=



000
FTUS46 KOTX 272324
TAFGEG
TAF
KGEG 272324Z 2800/2824 29010G15KT P6SM -TSRA BKN070CB BKN100
     FM280200 24008KT P6SM SCT070 SCT100
     FM280900 19006KT P6SM VCFG SKC
     FM281500 18008KT P6SM SCT070 SCT120=



000
FTUS46 KOTX 272324
TAFPUW
TAF
KPUW 272324Z 2800/2824 27014G20KT P6SM -TSRA BKN070CB BKN120
     FM280200 25006KT P6SM SCT080 SCT120
     FM280500 VRB04KT P6SM FEW080
     FM281500 22005KT P6SM FEW080 SCT120=



000
FTUS46 KOTX 272324
TAFLWS
TAF
KLWS 272324Z 2800/2824 30014G21KT P6SM -TSRA BKN080CB BKN120
     FM280200 29007KT P6SM SCT090 SCT200
     FM280600 VRB04KT P6SM SCT200
     FM281500 08006KT P6SM SCT120 SCT200=



000
FTUS46 KOTX 272324
TAFMWH
TAF
KMWH 272324Z 2800/2824 29012G18KT P6SM SCT080
     FM280200 28010KT P6SM FEW080
     FM280600 32005KT P6SM SKC
     FM281500 26005KT P6SM SKC=



000
FTUS46 KOTX 272324
TAFLWS
TAF
KLWS 272324Z 2800/2824 30014G21KT P6SM -TSRA BKN080CB BKN120
     FM280200 29007KT P6SM SCT090 SCT200
     FM280600 VRB04KT P6SM SCT200
     FM281500 08006KT P6SM SCT120 SCT200=



000
FTUS46 KOTX 272324
TAFCOE
TAF
KCOE 272324Z 2800/2824 25008G14KT P6SM -TSRA BKN070CB BKN120
     FM280200 17006KT P6SM SCT080 SCT120
     FM280700 16004KT P6SM VCFG SKC
     FM281500 20006KT P6SM SCT080 SCT120
      AMD LTD TO CLD AND VIS=



000
FTUS46 KOTX 272324
TAFEAT
TAF
KEAT 272324Z 2800/2824 30016G24KT P6SM SKC
     FM280600 30013KT P6SM SKC
     FM281500 30007KT P6SM SKC
     FM282100 14005KT P6SM SKC=



000
FTUS46 KOTX 272324
TAFPUW
TAF
KPUW 272324Z 2800/2824 27014G20KT P6SM -TSRA BKN070CB BKN120
     FM280200 25006KT P6SM SCT080 SCT120
     FM280500 VRB04KT P6SM FEW080
     FM281500 22005KT P6SM FEW080 SCT120=



000
FTUS46 KOTX 272324
TAFSFF
TAF
KSFF 272324Z 2800/2824 26009G15KT P6SM -TSRA BKN070CB BKN120
     FM280200 25006KT P6SM SCT080 SCT120
     FM280700 VRB03KT P6SM VCFG SKC
     FM281500 20006KT P6SM SCT080 SCT120=



000
FTUS46 KOTX 272324
TAFCOE
TAF
KCOE 272324Z 2800/2824 25008G14KT P6SM -TSRA BKN070CB BKN120
     FM280200 17006KT P6SM SCT080 SCT120
     FM280700 16004KT P6SM VCFG SKC
     FM281500 20006KT P6SM SCT080 SCT120
      AMD LTD TO CLD AND VIS=



000
FTUS46 KOTX 272324
TAFMWH
TAF
KMWH 272324Z 2800/2824 29012G18KT P6SM SCT080
     FM280200 28010KT P6SM FEW080
     FM280600 32005KT P6SM SKC
     FM281500 26005KT P6SM SKC=



000
FTUS46 KOTX 272324
TAFSFF
TAF
KSFF 272324Z 2800/2824 26009G15KT P6SM -TSRA BKN070CB BKN120
     FM280200 25006KT P6SM SCT080 SCT120
     FM280700 VRB03KT P6SM VCFG SKC
     FM281500 20006KT P6SM SCT080 SCT120=



000
FTUS46 KOTX 272324
TAFEAT
TAF
KEAT 272324Z 2800/2824 30016G24KT P6SM SKC
     FM280600 30013KT P6SM SKC
     FM281500 30007KT P6SM SKC
     FM282100 14005KT P6SM SKC=



000
FTUS46 KOTX 272324
TAFPUW
TAF
KPUW 272324Z 2800/2824 27014G20KT P6SM -TSRA BKN070CB BKN120
     FM280200 25006KT P6SM SCT080 SCT120
     FM280500 VRB04KT P6SM FEW080
     FM281500 22005KT P6SM FEW080 SCT120=



000
FTUS46 KOTX 272324
TAFGEG
TAF
KGEG 272324Z 2800/2824 29010G15KT P6SM -TSRA BKN070CB BKN100
     FM280200 24008KT P6SM SCT070 SCT100
     FM280900 19006KT P6SM VCFG SKC
     FM281500 18008KT P6SM SCT070 SCT120=



000
FTUS46 KOTX 272324
TAFSFF
TAF
KSFF 272324Z 2800/2824 26009G15KT P6SM -TSRA BKN070CB BKN120
     FM280200 25006KT P6SM SCT080 SCT120
     FM280700 VRB03KT P6SM VCFG SKC
     FM281500 20006KT P6SM SCT080 SCT120=



000
FTUS46 KOTX 272324
TAFGEG
TAF
KGEG 272324Z 2800/2824 29010G15KT P6SM -TSRA BKN070CB BKN100
     FM280200 24008KT P6SM SCT070 SCT100
     FM280900 19006KT P6SM VCFG SKC
     FM281500 18008KT P6SM SCT070 SCT120=



000
FTUS46 KOTX 272324
TAFPUW
TAF
KPUW 272324Z 2800/2824 27014G20KT P6SM -TSRA BKN070CB BKN120
     FM280200 25006KT P6SM SCT080 SCT120
     FM280500 VRB04KT P6SM FEW080
     FM281500 22005KT P6SM FEW080 SCT120=



000
FTUS46 KOTX 272324
TAFLWS
TAF
KLWS 272324Z 2800/2824 30014G21KT P6SM -TSRA BKN080CB BKN120
     FM280200 29007KT P6SM SCT090 SCT200
     FM280600 VRB04KT P6SM SCT200
     FM281500 08006KT P6SM SCT120 SCT200=



000
FTUS46 KOTX 272324
TAFMWH
TAF
KMWH 272324Z 2800/2824 29012G18KT P6SM SCT080
     FM280200 28010KT P6SM FEW080
     FM280600 32005KT P6SM SKC
     FM281500 26005KT P6SM SKC=



000
FTUS46 KOTX 272324
TAFEAT
TAF
KEAT 272324Z 2800/2824 30016G24KT P6SM SKC
     FM280600 30013KT P6SM SKC
     FM281500 30007KT P6SM SKC
     FM282100 14005KT P6SM SKC=



000
FTUS46 KOTX 272324
TAFCOE
TAF
KCOE 272324Z 2800/2824 25008G14KT P6SM -TSRA BKN070CB BKN120
     FM280200 17006KT P6SM SCT080 SCT120
     FM280700 16004KT P6SM VCFG SKC
     FM281500 20006KT P6SM SCT080 SCT120
      AMD LTD TO CLD AND VIS=



000
FTUS46 KOTX 272324
TAFCOE
TAF
KCOE 272324Z 2800/2824 25008G14KT P6SM -TSRA BKN070CB BKN120
     FM280200 17006KT P6SM SCT080 SCT120
     FM280700 16004KT P6SM VCFG SKC
     FM281500 20006KT P6SM SCT080 SCT120
      AMD LTD TO CLD AND VIS=



000
FTUS46 KOTX 272324
TAFSFF
TAF
KSFF 272324Z 2800/2824 26009G15KT P6SM -TSRA BKN070CB BKN120
     FM280200 25006KT P6SM SCT080 SCT120
     FM280700 VRB03KT P6SM VCFG SKC
     FM281500 20006KT P6SM SCT080 SCT120=



000
FTUS46 KOTX 272324
TAFEAT
TAF
KEAT 272324Z 2800/2824 30016G24KT P6SM SKC
     FM280600 30013KT P6SM SKC
     FM281500 30007KT P6SM SKC
     FM282100 14005KT P6SM SKC=



000
FTUS46 KOTX 272324
TAFLWS
TAF
KLWS 272324Z 2800/2824 30014G21KT P6SM -TSRA BKN080CB BKN120
     FM280200 29007KT P6SM SCT090 SCT200
     FM280600 VRB04KT P6SM SCT200
     FM281500 08006KT P6SM SCT120 SCT200=



000
FTUS46 KOTX 272324
TAFMWH
TAF
KMWH 272324Z 2800/2824 29012G18KT P6SM SCT080
     FM280200 28010KT P6SM FEW080
     FM280600 32005KT P6SM SKC
     FM281500 26005KT P6SM SKC=



000
FTUS46 KOTX 271740
TAFPUW
TAF
KPUW 271740Z 2718/2818 27013G18KT P6SM -SHRA BKN070 BKN100
     FM272000 27014G20KT P6SM VCSH SCT070 SCT100
      TEMPO 2721/2724 SHRA BKN060
     FM280200 25006KT P6SM SCT080 SCT120
     FM280500 VRB04KT P6SM FEW080=



000
FTUS46 KOTX 271740
TAFMWH
TAF
KMWH 271740Z 2718/2818 29012G18KT P6SM SCT080
     FM280200 28010KT P6SM FEW080
     FM280600 32005KT P6SM SKC=



000
FTUS46 KOTX 271740
TAFGEG
TAF
KGEG 271740Z 2718/2818 29007KT P6SM FEW060 BKN100
     FM272000 27011G16KT P6SM VCSH BKN060 BKN100
      TEMPO 2721/2723 6SM SHRA BKN050
     FM280200 24008KT P6SM SCT070 SCT100
     FM280900 19006KT P6SM SKC=



000
FTUS46 KOTX 271740
TAFLWS
TAF
KLWS 271740Z 2718/2818 28012G18KT P6SM -SHRA SCT070 BKN100
     FM272000 29014G20KT P6SM VCSH BKN080 BKN120
     FM280200 29007KT P6SM SCT090 SCT200
     FM280600 VRB04KT P6SM SCT200=



000
FTUS46 KOTX 271740
TAFSFF
TAF
KSFF 271740Z 2718/2818 23006KT P6SM SCT070 BKN100
     FM272000 24008KT P6SM VCSH BKN070 BKN120
      TEMPO 2721/2723 6SM -SHRA BKN050
     FM280200 25006KT P6SM SCT080 SCT120
     FM280700 VRB03KT P6SM SKC=



000
FTUS46 KOTX 271740
TAFEAT
TAF
KEAT 271740Z 2718/2818 31014KT P6SM SCT090
     FM272100 30016G24KT P6SM SKC
     FM280600 30013KT P6SM SKC=



000
FTUS46 KOTX 271740
TAFCOE
TAF
KCOE 271740Z 2718/2818 20006KT P6SM SCT060 BKN100
     FM272000 25010G16KT P6SM VCSH BKN070 BKN120
      TEMPO 2721/2724 6SM SHRA BKN060
     FM280300 17006KT P6SM SCT080 SCT120
      AMD LTD TO CLD AND VIS=



000
FTUS46 KOTX 271740
TAFCOE
TAF
KCOE 271740Z 2718/2818 20006KT P6SM SCT060 BKN100
     FM272000 25010G16KT P6SM VCSH BKN070 BKN120
      TEMPO 2721/2724 6SM SHRA BKN060
     FM280300 17006KT P6SM SCT080 SCT120
      AMD LTD TO CLD AND VIS=



000
FTUS46 KOTX 271740
TAFLWS
TAF
KLWS 271740Z 2718/2818 28012G18KT P6SM -SHRA SCT070 BKN100
     FM272000 29014G20KT P6SM VCSH BKN080 BKN120
     FM280200 29007KT P6SM SCT090 SCT200
     FM280600 VRB04KT P6SM SCT200=



000
FTUS46 KOTX 271740
TAFEAT
TAF
KEAT 271740Z 2718/2818 31014KT P6SM SCT090
     FM272100 30016G24KT P6SM SKC
     FM280600 30013KT P6SM SKC=



000
FTUS46 KOTX 271740
TAFPUW
TAF
KPUW 271740Z 2718/2818 27013G18KT P6SM -SHRA BKN070 BKN100
     FM272000 27014G20KT P6SM VCSH SCT070 SCT100
      TEMPO 2721/2724 SHRA BKN060
     FM280200 25006KT P6SM SCT080 SCT120
     FM280500 VRB04KT P6SM FEW080=



000
FTUS46 KOTX 271740
TAFSFF
TAF
KSFF 271740Z 2718/2818 23006KT P6SM SCT070 BKN100
     FM272000 24008KT P6SM VCSH BKN070 BKN120
      TEMPO 2721/2723 6SM -SHRA BKN050
     FM280200 25006KT P6SM SCT080 SCT120
     FM280700 VRB03KT P6SM SKC=



000
FTUS46 KOTX 271740
TAFGEG
TAF
KGEG 271740Z 2718/2818 29007KT P6SM FEW060 BKN100
     FM272000 27011G16KT P6SM VCSH BKN060 BKN100
      TEMPO 2721/2723 6SM SHRA BKN050
     FM280200 24008KT P6SM SCT070 SCT100
     FM280900 19006KT P6SM SKC=



000
FTUS46 KOTX 271740
TAFMWH
TAF
KMWH 271740Z 2718/2818 29012G18KT P6SM SCT080
     FM280200 28010KT P6SM FEW080
     FM280600 32005KT P6SM SKC=



000
FTUS46 KOTX 271740
TAFMWH
TAF
KMWH 271740Z 2718/2818 29012G18KT P6SM SCT080
     FM280200 28010KT P6SM FEW080
     FM280600 32005KT P6SM SKC=



000
FTUS46 KOTX 271740
TAFGEG
TAF
KGEG 271740Z 2718/2818 29007KT P6SM FEW060 BKN100
     FM272000 27011G16KT P6SM VCSH BKN060 BKN100
      TEMPO 2721/2723 6SM SHRA BKN050
     FM280200 24008KT P6SM SCT070 SCT100
     FM280900 19006KT P6SM SKC=



000
FTUS46 KOTX 271740
TAFPUW
TAF
KPUW 271740Z 2718/2818 27013G18KT P6SM -SHRA BKN070 BKN100
     FM272000 27014G20KT P6SM VCSH SCT070 SCT100
      TEMPO 2721/2724 SHRA BKN060
     FM280200 25006KT P6SM SCT080 SCT120
     FM280500 VRB04KT P6SM FEW080=



000
FTUS46 KOTX 271740
TAFLWS
TAF
KLWS 271740Z 2718/2818 28012G18KT P6SM -SHRA SCT070 BKN100
     FM272000 29014G20KT P6SM VCSH BKN080 BKN120
     FM280200 29007KT P6SM SCT090 SCT200
     FM280600 VRB04KT P6SM SCT200=



000
FTUS46 KOTX 271740
TAFSFF
TAF
KSFF 271740Z 2718/2818 23006KT P6SM SCT070 BKN100
     FM272000 24008KT P6SM VCSH BKN070 BKN120
      TEMPO 2721/2723 6SM -SHRA BKN050
     FM280200 25006KT P6SM SCT080 SCT120
     FM280700 VRB03KT P6SM SKC=



000
FTUS46 KOTX 271740
TAFEAT
TAF
KEAT 271740Z 2718/2818 31014KT P6SM SCT090
     FM272100 30016G24KT P6SM SKC
     FM280600 30013KT P6SM SKC=



000
FTUS46 KOTX 271740
TAFCOE
TAF
KCOE 271740Z 2718/2818 20006KT P6SM SCT060 BKN100
     FM272000 25010G16KT P6SM VCSH BKN070 BKN120
      TEMPO 2721/2724 6SM SHRA BKN060
     FM280300 17006KT P6SM SCT080 SCT120
      AMD LTD TO CLD AND VIS=



000
FTUS46 KOTX 271740
TAFPUW
TAF
KPUW 271740Z 2718/2818 27013G18KT P6SM -SHRA BKN070 BKN100
     FM272000 27014G20KT P6SM VCSH SCT070 SCT100
      TEMPO 2721/2724 SHRA BKN060
     FM280200 25006KT P6SM SCT080 SCT120
     FM280500 VRB04KT P6SM FEW080=



000
FTUS46 KOTX 271740
TAFCOE
TAF
KCOE 271740Z 2718/2818 20006KT P6SM SCT060 BKN100
     FM272000 25010G16KT P6SM VCSH BKN070 BKN120
      TEMPO 2721/2724 6SM SHRA BKN060
     FM280300 17006KT P6SM SCT080 SCT120
      AMD LTD TO CLD AND VIS=



000
FTUS46 KOTX 271740
TAFMWH
TAF
KMWH 271740Z 2718/2818 29012G18KT P6SM SCT080
     FM280200 28010KT P6SM FEW080
     FM280600 32005KT P6SM SKC=



000
FTUS46 KOTX 271740
TAFLWS
TAF
KLWS 271740Z 2718/2818 28012G18KT P6SM -SHRA SCT070 BKN100
     FM272000 29014G20KT P6SM VCSH BKN080 BKN120
     FM280200 29007KT P6SM SCT090 SCT200
     FM280600 VRB04KT P6SM SCT200=



000
FTUS46 KOTX 271740
TAFSFF
TAF
KSFF 271740Z 2718/2818 23006KT P6SM SCT070 BKN100
     FM272000 24008KT P6SM VCSH BKN070 BKN120
      TEMPO 2721/2723 6SM -SHRA BKN050
     FM280200 25006KT P6SM SCT080 SCT120
     FM280700 VRB03KT P6SM SKC=



000
FTUS46 KOTX 271740
TAFEAT
TAF
KEAT 271740Z 2718/2818 31014KT P6SM SCT090
     FM272100 30016G24KT P6SM SKC
     FM280600 30013KT P6SM SKC=



000
FTUS46 KOTX 271740
TAFGEG
TAF
KGEG 271740Z 2718/2818 29007KT P6SM FEW060 BKN100
     FM272000 27011G16KT P6SM VCSH BKN060 BKN100
      TEMPO 2721/2723 6SM SHRA BKN050
     FM280200 24008KT P6SM SCT070 SCT100
     FM280900 19006KT P6SM SKC=



000
FTUS46 KOTX 271654 AAA
TAFCOE
TAF AMD
KCOE 271654Z 2717/2812 20006KT P6SM SCT060 SCT100
     FM272000 25010G16KT P6SM VCSH BKN070 BKN120
      TEMPO 2721/2724 6SM SHRA BKN060
     FM280300 20006KT P6SM SCT080 SCT120
      AMD LTD TO CLD AND VIS=



000
FTUS46 KOTX 271654 AAA
TAFCOE
TAF AMD
KCOE 271654Z 2717/2812 20006KT P6SM SCT060 SCT100
     FM272000 25010G16KT P6SM VCSH BKN070 BKN120
      TEMPO 2721/2724 6SM SHRA BKN060
     FM280300 20006KT P6SM SCT080 SCT120
      AMD LTD TO CLD AND VIS=



000
FTUS46 KOTX 271650 AAA
TAFGEG
TAF AMD
KGEG 271650Z 2717/2812 29007KT P6SM FEW060 SCT100
     FM272000 27011G16KT P6SM VCSH BKN060 BKN100
      TEMPO 2721/2723 6SM SHRA BKN050
     FM280200 24008KT P6SM SCT070 SCT100=



000
FTUS46 KOTX 271650 AAA
TAFGEG
TAF AMD
KGEG 271650Z 2717/2812 29007KT P6SM FEW060 SCT100
     FM272000 27011G16KT P6SM VCSH BKN060 BKN100
      TEMPO 2721/2723 6SM SHRA BKN050
     FM280200 24008KT P6SM SCT070 SCT100=



000
FTUS46 KOTX 271644 AAA
TAFSFF
TAF AMD
KSFF 271644Z 2717/2812 23006KT P6SM SCT070 SCT100
     FM272000 24008KT P6SM VCSH BKN070 BKN120
      TEMPO 2721/2723 6SM -SHRA BKN050
     FM280200 25006KT P6SM SCT080 SCT120=



000
FTUS46 KOTX 271644 AAA
TAFSFF
TAF AMD
KSFF 271644Z 2717/2812 23006KT P6SM SCT070 SCT100
     FM272000 24008KT P6SM VCSH BKN070 BKN120
      TEMPO 2721/2723 6SM -SHRA BKN050
     FM280200 25006KT P6SM SCT080 SCT120=



000
FTUS46 KOTX 271356 AAA
TAFEAT
TAF AMD
KEAT 271356Z 2714/2812 29010KT P6SM SCT090
     FM272100 30016G24KT P6SM SKC
     FM280600 30013KT P6SM SKC=



000
FTUS46 KOTX 271356 AAA
TAFEAT
TAF AMD
KEAT 271356Z 2714/2812 29010KT P6SM SCT090
     FM272100 30016G24KT P6SM SKC
     FM280600 30013KT P6SM SKC=



000
FTUS46 KOTX 271137
TAFSFF
TAF
KSFF 271137Z 2712/2812 22005KT P6SM VCSH SCT080 BKN130
      TEMPO 2714/2717 6SM -TSRA BKN060CB
     FM271700 23010KT P6SM VCTS BKN060CB
     FM272200 25010G16KT P6SM VCSH BKN070 BKN120
     FM280200 25006KT P6SM SCT080 SCT120=



000
FTUS46 KOTX 271137
TAFPUW
TAF
KPUW 271137Z 2712/2812 26010KT P6SM SCT080 BKN130
     FM272000 27014G20KT P6SM -TSRA BKN080CB BKN120
     FM280200 25006KT P6SM SCT090 SCT120
     FM280800 VRB04KT P6SM SCT200=



000
FTUS46 KOTX 271137
TAFSFF
TAF
KSFF 271137Z 2712/2812 22005KT P6SM VCSH SCT080 BKN130
      TEMPO 2714/2717 6SM -TSRA BKN060CB
     FM271700 23010KT P6SM VCTS BKN060CB
     FM272200 25010G16KT P6SM VCSH BKN070 BKN120
     FM280200 25006KT P6SM SCT080 SCT120=



000
FTUS46 KOTX 271137
TAFGEG
TAF
KGEG 271137Z 2712/2812 20007KT P6SM VCSH SCT080 BKN120
      TEMPO 2713/2716 6SM -TSRA BKN060CB
     FM271600 22008G16KT P6SM VCTS SCT060CB BKN100
     FM272100 26015G20KT P6SM VCSH BKN060
     FM280200 24008KT P6SM SCT070 SCT100=



000
FTUS46 KOTX 271137
TAFGEG
TAF
KGEG 271137Z 2712/2812 20007KT P6SM VCSH SCT080 BKN120
      TEMPO 2713/2716 6SM -TSRA BKN060CB
     FM271600 22008G16KT P6SM VCTS SCT060CB BKN100
     FM272100 26015G20KT P6SM VCSH BKN060
     FM280200 24008KT P6SM SCT070 SCT100=



000
FTUS46 KOTX 271137
TAFCOE
TAF
KCOE 271137Z 2712/2812 20006KT P6SM VCSH BKN060 BKN130
     FM272000 24010G16KT P6SM -TSRA BKN070CB BKN120
     FM280200 20006KT P6SM SCT080 SCT120
      AMD LTD TO CLD AND VIS=



000
FTUS46 KOTX 271137
TAFSFF
TAF
KSFF 271137Z 2712/2812 22005KT P6SM VCSH SCT080 BKN130
      TEMPO 2714/2717 6SM -TSRA BKN060CB
     FM271700 23010KT P6SM VCTS BKN060CB
     FM272200 25010G16KT P6SM VCSH BKN070 BKN120
     FM280200 25006KT P6SM SCT080 SCT120=



000
FTUS46 KOTX 271137
TAFMWH
TAF
KMWH 271137Z 2712/2812 30008KT P6SM -SHRA BKN070
     FM271400 29007KT P6SM VCSH SCT070 SCT100
     FM272000 29014G22KT P6SM VCSH SCT080
     FM280200 26010KT P6SM FEW080=



000
FTUS46 KOTX 271137
TAFLWS
TAF
KLWS 271137Z 2712/2812 26006KT P6SM SCT080 BKN180
     FM272000 30010G16KT P6SM -TSRA BKN080CB BKN180
     FM280200 30007KT P6SM SCT090 SCT180
     FM280600 VRB04KT P6SM SCT200=



000
FTUS46 KOTX 271137
TAFMWH
TAF
KMWH 271137Z 2712/2812 30008KT P6SM -SHRA BKN070
     FM271400 29007KT P6SM VCSH SCT070 SCT100
     FM272000 29014G22KT P6SM VCSH SCT080
     FM280200 26010KT P6SM FEW080=



000
FTUS46 KOTX 271137
TAFMWH
TAF
KMWH 271137Z 2712/2812 30008KT P6SM -SHRA BKN070
     FM271400 29007KT P6SM VCSH SCT070 SCT100
     FM272000 29014G22KT P6SM VCSH SCT080
     FM280200 26010KT P6SM FEW080=



000
FTUS46 KOTX 271137
TAFPUW
TAF
KPUW 271137Z 2712/2812 26010KT P6SM SCT080 BKN130
     FM272000 27014G20KT P6SM -TSRA BKN080CB BKN120
     FM280200 25006KT P6SM SCT090 SCT120
     FM280800 VRB04KT P6SM SCT200=



000
FTUS46 KOTX 271137
TAFEAT
TAF
KEAT 271137Z 2712/2812 29015KT P6SM SCT090
     FM271400 30016G24KT P6SM SKC
     FM280600 30017KT P6SM SKC=



000
FTUS46 KOTX 271137
TAFEAT
TAF
KEAT 271137Z 2712/2812 29015KT P6SM SCT090
     FM271400 30016G24KT P6SM SKC
     FM280600 30017KT P6SM SKC=



000
FTUS46 KOTX 271137
TAFGEG
TAF
KGEG 271137Z 2712/2812 20007KT P6SM VCSH SCT080 BKN120
      TEMPO 2713/2716 6SM -TSRA BKN060CB
     FM271600 22008G16KT P6SM VCTS SCT060CB BKN100
     FM272100 26015G20KT P6SM VCSH BKN060
     FM280200 24008KT P6SM SCT070 SCT100=



000
FTUS46 KOTX 271137
TAFLWS
TAF
KLWS 271137Z 2712/2812 26006KT P6SM SCT080 BKN180
     FM272000 30010G16KT P6SM -TSRA BKN080CB BKN180
     FM280200 30007KT P6SM SCT090 SCT180
     FM280600 VRB04KT P6SM SCT200=



000
FTUS46 KOTX 271137
TAFCOE
TAF
KCOE 271137Z 2712/2812 20006KT P6SM VCSH BKN060 BKN130
     FM272000 24010G16KT P6SM -TSRA BKN070CB BKN120
     FM280200 20006KT P6SM SCT080 SCT120
      AMD LTD TO CLD AND VIS=



000
FTUS46 KOTX 271137
TAFPUW
TAF
KPUW 271137Z 2712/2812 26010KT P6SM SCT080 BKN130
     FM272000 27014G20KT P6SM -TSRA BKN080CB BKN120
     FM280200 25006KT P6SM SCT090 SCT120
     FM280800 VRB04KT P6SM SCT200=



000
FTUS46 KOTX 271137
TAFLWS
TAF
KLWS 271137Z 2712/2812 26006KT P6SM SCT080 BKN180
     FM272000 30010G16KT P6SM -TSRA BKN080CB BKN180
     FM280200 30007KT P6SM SCT090 SCT180
     FM280600 VRB04KT P6SM SCT200=



000
FTUS46 KOTX 271137
TAFEAT
TAF
KEAT 271137Z 2712/2812 29015KT P6SM SCT090
     FM271400 30016G24KT P6SM SKC
     FM280600 30017KT P6SM SKC=



000
FTUS46 KOTX 271137
TAFCOE
TAF
KCOE 271137Z 2712/2812 20006KT P6SM VCSH BKN060 BKN130
     FM272000 24010G16KT P6SM -TSRA BKN070CB BKN120
     FM280200 20006KT P6SM SCT080 SCT120
      AMD LTD TO CLD AND VIS=



000
FTUS46 KOTX 270520
TAFMWH
TAF
KMWH 270520Z 2706/2806 26010KT P6SM BKN180
     FM270800 29008KT P6SM -SHRA BKN100 OVC180
     FM271300 29007KT P6SM SCT100
     FM272000 29010G15KT P6SM VCSH SCT080
     FM280200 26010KT P6SM FEW080=



000
FTUS46 KOTX 270520
TAFSFF
TAF
KSFF 270520Z 2706/2806 21006KT P6SM BKN080 BKN150
     FM270800 22005KT P6SM -SHRA BKN080 BKN130
     FM271200 22005KT P6SM SCT080 BKN130
     FM272000 25010G16KT P6SM -TSRA BKN070CB BKN120
     FM280200 25006KT P6SM SCT080 SCT120=



000
FTUS46 KOTX 270520
TAFPUW
TAF
KPUW 270520Z 2706/2806 26007KT P6SM SCT080 BKN150
     FM270800 25006KT P6SM -SHRA BKN080 BKN130
     FM271200 25006KT P6SM SCT080 BKN130
     FM272000 27012G18KT P6SM -TSRA BKN080CB BKN120
     FM280200 25006KT P6SM SCT090 SCT120=



000
FTUS46 KOTX 270520
TAFGEG
TAF
KGEG 270520Z 2706/2806 21007KT P6SM BKN070 BKN150
     FM270800 21007KT P6SM -SHRA BKN080 BKN130
     FM271200 20007KT P6SM SCT080 BKN120
     FM272000 26015G20KT P6SM -TSRA BKN060CB BKN100
     FM280200 24008KT P6SM SCT070 SCT100=



000
FTUS46 KOTX 270520
TAFSFF
TAF
KSFF 270520Z 2706/2806 21006KT P6SM BKN080 BKN150
     FM270800 22005KT P6SM -SHRA BKN080 BKN130
     FM271200 22005KT P6SM SCT080 BKN130
     FM272000 25010G16KT P6SM -TSRA BKN070CB BKN120
     FM280200 25006KT P6SM SCT080 SCT120=



000
FTUS46 KOTX 270520
TAFEAT
TAF
KEAT 270520Z 2706/2806 30018G25KT P6SM SCT090 BKN140
     FM270800 30013G21KT P6SM SKC
     FM280200 30017KT P6SM SKC=



000
FTUS46 KOTX 270520
TAFEAT
TAF
KEAT 270520Z 2706/2806 30018G25KT P6SM SCT090 BKN140
     FM270800 30013G21KT P6SM SKC
     FM280200 30017KT P6SM SKC=



000
FTUS46 KOTX 270520
TAFCOE
TAF
KCOE 270520Z 2706/2806 22005KT P6SM SCT060 SCT150 BKN200
     FM270900 17006KT P6SM -SHRA BKN060 BKN130
     FM271300 20006KT P6SM SCT060 BKN130
     FM272000 24010G16KT P6SM -TSRA BKN070CB BKN120
     FM280200 20006KT P6SM SCT080 SCT120
      AMD LTD TO CLD AND VIS=



000
FTUS46 KOTX 270520
TAFSFF
TAF
KSFF 270520Z 2706/2806 21006KT P6SM BKN080 BKN150
     FM270800 22005KT P6SM -SHRA BKN080 BKN130
     FM271200 22005KT P6SM SCT080 BKN130
     FM272000 25010G16KT P6SM -TSRA BKN070CB BKN120
     FM280200 25006KT P6SM SCT080 SCT120=



000
FTUS46 KOTX 270520
TAFLWS
TAF
KLWS 270520Z 2706/2806 30009KT P6SM FEW090
     FM270700 18005KT P6SM VCSH BKN080 BKN180
     FM271200 26006KT P6SM SCT080 BKN180
     FM272000 30010G16KT P6SM -TSRA BKN080CB BKN180
     FM280200 30007KT P6SM SCT090 SCT180=



000
FTUS46 KOTX 270520
TAFGEG
TAF
KGEG 270520Z 2706/2806 21007KT P6SM BKN070 BKN150
     FM270800 21007KT P6SM -SHRA BKN080 BKN130
     FM271200 20007KT P6SM SCT080 BKN120
     FM272000 26015G20KT P6SM -TSRA BKN060CB BKN100
     FM280200 24008KT P6SM SCT070 SCT100=



000
FTUS46 KOTX 270520
TAFMWH
TAF
KMWH 270520Z 2706/2806 26010KT P6SM BKN180
     FM270800 29008KT P6SM -SHRA BKN100 OVC180
     FM271300 29007KT P6SM SCT100
     FM272000 29010G15KT P6SM VCSH SCT080
     FM280200 26010KT P6SM FEW080=



000
FTUS46 KOTX 270520
TAFGEG
TAF
KGEG 270520Z 2706/2806 21007KT P6SM BKN070 BKN150
     FM270800 21007KT P6SM -SHRA BKN080 BKN130
     FM271200 20007KT P6SM SCT080 BKN120
     FM272000 26015G20KT P6SM -TSRA BKN060CB BKN100
     FM280200 24008KT P6SM SCT070 SCT100=



000
FTUS46 KOTX 270520
TAFPUW
TAF
KPUW 270520Z 2706/2806 26007KT P6SM SCT080 BKN150
     FM270800 25006KT P6SM -SHRA BKN080 BKN130
     FM271200 25006KT P6SM SCT080 BKN130
     FM272000 27012G18KT P6SM -TSRA BKN080CB BKN120
     FM280200 25006KT P6SM SCT090 SCT120=



000
FTUS46 KOTX 270520
TAFMWH
TAF
KMWH 270520Z 2706/2806 26010KT P6SM BKN180
     FM270800 29008KT P6SM -SHRA BKN100 OVC180
     FM271300 29007KT P6SM SCT100
     FM272000 29010G15KT P6SM VCSH SCT080
     FM280200 26010KT P6SM FEW080=



000
FTUS46 KOTX 270520
TAFGEG
TAF
KGEG 270520Z 2706/2806 21007KT P6SM BKN070 BKN150
     FM270800 21007KT P6SM -SHRA BKN080 BKN130
     FM271200 20007KT P6SM SCT080 BKN120
     FM272000 26015G20KT P6SM -TSRA BKN060CB BKN100
     FM280200 24008KT P6SM SCT070 SCT100=



000
FTUS46 KOTX 270520
TAFPUW
TAF
KPUW 270520Z 2706/2806 26007KT P6SM SCT080 BKN150
     FM270800 25006KT P6SM -SHRA BKN080 BKN130
     FM271200 25006KT P6SM SCT080 BKN130
     FM272000 27012G18KT P6SM -TSRA BKN080CB BKN120
     FM280200 25006KT P6SM SCT090 SCT120=



000
FTUS46 KOTX 270520
TAFLWS
TAF
KLWS 270520Z 2706/2806 30009KT P6SM FEW090
     FM270700 18005KT P6SM VCSH BKN080 BKN180
     FM271200 26006KT P6SM SCT080 BKN180
     FM272000 30010G16KT P6SM -TSRA BKN080CB BKN180
     FM280200 30007KT P6SM SCT090 SCT180=



000
FTUS46 KOTX 270520
TAFSFF
TAF
KSFF 270520Z 2706/2806 21006KT P6SM BKN080 BKN150
     FM270800 22005KT P6SM -SHRA BKN080 BKN130
     FM271200 22005KT P6SM SCT080 BKN130
     FM272000 25010G16KT P6SM -TSRA BKN070CB BKN120
     FM280200 25006KT P6SM SCT080 SCT120=



000
FTUS46 KOTX 270520
TAFCOE
TAF
KCOE 270520Z 2706/2806 22005KT P6SM SCT060 SCT150 BKN200
     FM270900 17006KT P6SM -SHRA BKN060 BKN130
     FM271300 20006KT P6SM SCT060 BKN130
     FM272000 24010G16KT P6SM -TSRA BKN070CB BKN120
     FM280200 20006KT P6SM SCT080 SCT120
      AMD LTD TO CLD AND VIS=



000
FTUS46 KOTX 270520
TAFCOE
TAF
KCOE 270520Z 2706/2806 22005KT P6SM SCT060 SCT150 BKN200
     FM270900 17006KT P6SM -SHRA BKN060 BKN130
     FM271300 20006KT P6SM SCT060 BKN130
     FM272000 24010G16KT P6SM -TSRA BKN070CB BKN120
     FM280200 20006KT P6SM SCT080 SCT120
      AMD LTD TO CLD AND VIS=



000
FTUS46 KOTX 270520
TAFCOE
TAF
KCOE 270520Z 2706/2806 22005KT P6SM SCT060 SCT150 BKN200
     FM270900 17006KT P6SM -SHRA BKN060 BKN130
     FM271300 20006KT P6SM SCT060 BKN130
     FM272000 24010G16KT P6SM -TSRA BKN070CB BKN120
     FM280200 20006KT P6SM SCT080 SCT120
      AMD LTD TO CLD AND VIS=



000
FTUS46 KOTX 270520
TAFEAT
TAF
KEAT 270520Z 2706/2806 30018G25KT P6SM SCT090 BKN140
     FM270800 30013G21KT P6SM SKC
     FM280200 30017KT P6SM SKC=



000
FTUS46 KOTX 270520
TAFLWS
TAF
KLWS 270520Z 2706/2806 30009KT P6SM FEW090
     FM270700 18005KT P6SM VCSH BKN080 BKN180
     FM271200 26006KT P6SM SCT080 BKN180
     FM272000 30010G16KT P6SM -TSRA BKN080CB BKN180
     FM280200 30007KT P6SM SCT090 SCT180=



000
FTUS46 KOTX 262324
TAFGEG
TAF
KGEG 262324Z 2700/2724 22011G18KT P6SM VCSH BKN070 BKN150
     FM270300 21007KT P6SM BKN070 BKN150
     FM270800 21007KT P6SM -SHRA BKN080 BKN130
     FM271200 20007KT P6SM SCT080 BKN120
     FM272000 26015G20KT P6SM -TSRA BKN060CB BKN100=



000
FTUS46 KOTX 262324
TAFSFF
TAF
KSFF 262324Z 2700/2724 22010G15KT P6SM VCSH BKN070 BKN150
     FM270300 21006KT P6SM BKN080 BKN150
     FM270800 22005KT P6SM -SHRA BKN080 BKN130
     FM271200 22005KT P6SM SCT080 BKN130
     FM272000 25010G16KT P6SM -TSRA BKN070CB BKN120=



000
FTUS46 KOTX 262324
TAFLWS
TAF
KLWS 262324Z 2700/2724 31010KT P6SM SCT090 BKN150
     FM270300 30009KT P6SM FEW090
     FM270700 18005KT P6SM VCSH BKN080 BKN180
     FM271200 26006KT P6SM SCT080 BKN180
     FM272000 30010G16KT P6SM -TSRA BKN080CB BKN180=



000
FTUS46 KOTX 262324
TAFCOE
TAF
KCOE 262324Z 2700/2724 24009KT P6SM VCSH BKN060 BKN150
     FM270300 22005KT P6SM SCT060 SCT150 BKN200
     FM270900 17006KT P6SM -SHRA BKN060 BKN130
     FM271300 20006KT P6SM SCT060 BKN130
     FM272000 24010G16KT P6SM -TSRA BKN070CB BKN120
      AMD LTD TO CLD AND VIS=



000
FTUS46 KOTX 262324
TAFPUW
TAF
KPUW 262324Z 2700/2724 27009G15KT P6SM BKN070 BKN180
     FM270200 26007KT P6SM SCT080 BKN150
     FM270800 25006KT P6SM -SHRA BKN080 BKN130
     FM271200 25006KT P6SM SCT080 BKN130
     FM272000 27012G18KT P6SM -TSRA BKN080CB BKN120=



000
FTUS46 KOTX 262324
TAFEAT
TAF
KEAT 262324Z 2700/2724 28011KT P6SM VCTS BKN080CB BKN150
     FM270200 30018G25KT P6SM SCT090 BKN140
     FM270800 30013G21KT P6SM SKC=



000
FTUS46 KOTX 262324
TAFMWH
TAF
KMWH 262324Z 2700/2724 24010KT P6SM SCT080 BKN200
     FM270200 26010KT P6SM BKN180
     FM270800 29008KT P6SM -SHRA BKN100 OVC180
     FM271300 29007KT P6SM SCT100
     FM272000 29010G15KT P6SM VCSH SCT080=



000
FTUS46 KOTX 262324
TAFSFF
TAF
KSFF 262324Z 2700/2724 22010G15KT P6SM VCSH BKN070 BKN150
     FM270300 21006KT P6SM BKN080 BKN150
     FM270800 22005KT P6SM -SHRA BKN080 BKN130
     FM271200 22005KT P6SM SCT080 BKN130
     FM272000 25010G16KT P6SM -TSRA BKN070CB BKN120=



000
FTUS46 KOTX 262324
TAFEAT
TAF
KEAT 262324Z 2700/2724 28011KT P6SM VCTS BKN080CB BKN150
     FM270200 30018G25KT P6SM SCT090 BKN140
     FM270800 30013G21KT P6SM SKC=



000
FTUS46 KOTX 262324
TAFPUW
TAF
KPUW 262324Z 2700/2724 27009G15KT P6SM BKN070 BKN180
     FM270200 26007KT P6SM SCT080 BKN150
     FM270800 25006KT P6SM -SHRA BKN080 BKN130
     FM271200 25006KT P6SM SCT080 BKN130
     FM272000 27012G18KT P6SM -TSRA BKN080CB BKN120=



000
FTUS46 KOTX 262324
TAFGEG
TAF
KGEG 262324Z 2700/2724 22011G18KT P6SM VCSH BKN070 BKN150
     FM270300 21007KT P6SM BKN070 BKN150
     FM270800 21007KT P6SM -SHRA BKN080 BKN130
     FM271200 20007KT P6SM SCT080 BKN120
     FM272000 26015G20KT P6SM -TSRA BKN060CB BKN100=



000
FTUS46 KOTX 262324
TAFCOE
TAF
KCOE 262324Z 2700/2724 24009KT P6SM VCSH BKN060 BKN150
     FM270300 22005KT P6SM SCT060 SCT150 BKN200
     FM270900 17006KT P6SM -SHRA BKN060 BKN130
     FM271300 20006KT P6SM SCT060 BKN130
     FM272000 24010G16KT P6SM -TSRA BKN070CB BKN120
      AMD LTD TO CLD AND VIS=



000
FTUS46 KOTX 262324
TAFLWS
TAF
KLWS 262324Z 2700/2724 31010KT P6SM SCT090 BKN150
     FM270300 30009KT P6SM FEW090
     FM270700 18005KT P6SM VCSH BKN080 BKN180
     FM271200 26006KT P6SM SCT080 BKN180
     FM272000 30010G16KT P6SM -TSRA BKN080CB BKN180=



000
FTUS46 KOTX 262324
TAFMWH
TAF
KMWH 262324Z 2700/2724 24010KT P6SM SCT080 BKN200
     FM270200 26010KT P6SM BKN180
     FM270800 29008KT P6SM -SHRA BKN100 OVC180
     FM271300 29007KT P6SM SCT100
     FM272000 29010G15KT P6SM VCSH SCT080=



000
FTUS46 KOTX 261727
TAFMWH
TAF
KMWH 261727Z 2618/2718 24010KT P6SM SCT080 BKN200
     FM270200 26010KT P6SM BKN180
     FM270800 29008KT P6SM -SHRA BKN100 OVC180
     FM271300 29007KT P6SM SCT100=



000
FTUS46 KOTX 261727
TAFLWS
TAF
KLWS 261727Z 2618/2718 31010KT P6SM SCT090 BKN150
     FM270300 30009KT P6SM FEW090
     FM270700 18005KT P6SM VCSH BKN080 BKN180=



000
FTUS46 KOTX 261727
TAFEAT
TAF
KEAT 261727Z 2618/2718 31012KT P6SM SCT090
     FM262000 28011KT P6SM VCTS BKN080CB BKN150
     FM270200 30018G25KT P6SM SCT090 BKN140
     FM270800 30013G21KT P6SM SKC=



000
FTUS46 KOTX 261727
TAFSFF
TAF
KSFF 261727Z 2618/2718 22010G15KT P6SM VCSH BKN070 BKN150
     FM270300 21006KT P6SM BKN080 BKN150
     FM270800 22005KT P6SM -SHRA BKN080 BKN130=



000
FTUS46 KOTX 261727
TAFGEG
TAF
KGEG 261727Z 2618/2718 22011G18KT P6SM VCSH BKN070 BKN150
     FM270300 21007KT P6SM BKN070 BKN150
     FM270800 21007KT P6SM -SHRA BKN080 BKN130=



000
FTUS46 KOTX 261727
TAFPUW
TAF
KPUW 261727Z 2618/2718 27009G15KT P6SM BKN070 BKN180
     FM270200 26007KT P6SM SCT080 BKN150
     FM270800 25006KT P6SM -SHRA BKN080 BKN130=



000
FTUS46 KOTX 261727
TAFCOE
TAF
KCOE 261727Z 2618/2718 24009KT P6SM VCSH BKN060 BKN150
     FM270300 22005KT P6SM SCT060 SCT150 BKN200
     FM271000 17006KT P6SM -SHRA BKN060 BKN130
      AMD LTD TO CLD AND VIS=



000
FTUS46 KOTX 261727
TAFMWH
TAF
KMWH 261727Z 2618/2718 24010KT P6SM SCT080 BKN200
     FM270200 26010KT P6SM BKN180
     FM270800 29008KT P6SM -SHRA BKN100 OVC180
     FM271300 29007KT P6SM SCT100=



000
FTUS46 KOTX 261727
TAFGEG
TAF
KGEG 261727Z 2618/2718 22011G18KT P6SM VCSH BKN070 BKN150
     FM270300 21007KT P6SM BKN070 BKN150
     FM270800 21007KT P6SM -SHRA BKN080 BKN130=



000
FTUS46 KOTX 261727
TAFPUW
TAF
KPUW 261727Z 2618/2718 27009G15KT P6SM BKN070 BKN180
     FM270200 26007KT P6SM SCT080 BKN150
     FM270800 25006KT P6SM -SHRA BKN080 BKN130=



000
FTUS46 KOTX 261727
TAFEAT
TAF
KEAT 261727Z 2618/2718 31012KT P6SM SCT090
     FM262000 28011KT P6SM VCTS BKN080CB BKN150
     FM270200 30018G25KT P6SM SCT090 BKN140
     FM270800 30013G21KT P6SM SKC=



000
FTUS46 KOTX 261727
TAFMWH
TAF
KMWH 261727Z 2618/2718 24010KT P6SM SCT080 BKN200
     FM270200 26010KT P6SM BKN180
     FM270800 29008KT P6SM -SHRA BKN100 OVC180
     FM271300 29007KT P6SM SCT100=



000
FTUS46 KOTX 261727
TAFCOE
TAF
KCOE 261727Z 2618/2718 24009KT P6SM VCSH BKN060 BKN150
     FM270300 22005KT P6SM SCT060 SCT150 BKN200
     FM271000 17006KT P6SM -SHRA BKN060 BKN130
      AMD LTD TO CLD AND VIS=



000
FTUS46 KOTX 261727
TAFLWS
TAF
KLWS 261727Z 2618/2718 31010KT P6SM SCT090 BKN150
     FM270300 30009KT P6SM FEW090
     FM270700 18005KT P6SM VCSH BKN080 BKN180=



000
FTUS46 KOTX 261727
TAFEAT
TAF
KEAT 261727Z 2618/2718 31012KT P6SM SCT090
     FM262000 28011KT P6SM VCTS BKN080CB BKN150
     FM270200 30018G25KT P6SM SCT090 BKN140
     FM270800 30013G21KT P6SM SKC=



000
FTUS46 KOTX 261727
TAFLWS
TAF
KLWS 261727Z 2618/2718 31010KT P6SM SCT090 BKN150
     FM270300 30009KT P6SM FEW090
     FM270700 18005KT P6SM VCSH BKN080 BKN180=



000
FTUS46 KOTX 261727
TAFPUW
TAF
KPUW 261727Z 2618/2718 27009G15KT P6SM BKN070 BKN180
     FM270200 26007KT P6SM SCT080 BKN150
     FM270800 25006KT P6SM -SHRA BKN080 BKN130=



000
FTUS46 KOTX 261727
TAFCOE
TAF
KCOE 261727Z 2618/2718 24009KT P6SM VCSH BKN060 BKN150
     FM270300 22005KT P6SM SCT060 SCT150 BKN200
     FM271000 17006KT P6SM -SHRA BKN060 BKN130
      AMD LTD TO CLD AND VIS=



000
FTUS46 KOTX 261727
TAFGEG
TAF
KGEG 261727Z 2618/2718 22011G18KT P6SM VCSH BKN070 BKN150
     FM270300 21007KT P6SM BKN070 BKN150
     FM270800 21007KT P6SM -SHRA BKN080 BKN130=



000
FTUS46 KOTX 261727
TAFSFF
TAF
KSFF 261727Z 2618/2718 22010G15KT P6SM VCSH BKN070 BKN150
     FM270300 21006KT P6SM BKN080 BKN150
     FM270800 22005KT P6SM -SHRA BKN080 BKN130=



000
FTUS46 KOTX 261727
TAFSFF
TAF
KSFF 261727Z 2618/2718 22010G15KT P6SM VCSH BKN070 BKN150
     FM270300 21006KT P6SM BKN080 BKN150
     FM270800 22005KT P6SM -SHRA BKN080 BKN130=



000
FTUS46 KOTX 261137
TAFSFF
TAF
KSFF 261137Z 2612/2712 19009KT P6SM SCT060 BKN150
     FM261800 21008G16KT P6SM VCSH BKN070 BKN150
     FM270300 21006KT P6SM BKN080 BKN150
     FM270800 VRB03KT P6SM BKN070=



000
FTUS46 KOTX 261137
TAFPUW
TAF
KPUW 261137Z 2612/2712 24010KT P6SM SCT060 BKN100 BKN200
     FM261700 24011G17KT P6SM BKN070 BKN150
     FM270200 26007KT P6SM SCT080 BKN150
     FM270800 25006KT P6SM VCSH BKN080=



000
FTUS46 KOTX 261137
TAFEAT
TAF
KEAT 261137Z 2612/2712 29010KT P6SM SCT090 BKN150 BKN200
     FM262000 28011KT P6SM VCTS BKN080CB BKN150
     FM270200 30018G25KT P6SM SCT090 BKN140=



000
FTUS46 KOTX 261137
TAFMWH
TAF
KMWH 261137Z 2612/2712 24007KT P6SM SCT100 BKN200
     FM262000 22010G17KT P6SM SCT090 BKN150
     FM270200 26010KT P6SM BKN100=



000
FTUS46 KOTX 261137
TAFCOE
TAF
KCOE 261137Z 2612/2712 18009KT P6SM SCT060 BKN150
     FM262000 22009G15KT P6SM VCSH BKN060 BKN150
     FM270300 22005KT P6SM SCT060 SCT150 BKN200
     FM270600 16006KT P6SM BKN080
      AMD LTD TO CLD AND VIS=



000
FTUS46 KOTX 261137
TAFGEG
TAF
KGEG 261137Z 2612/2712 18010KT P6SM SCT070 BKN150
     FM261800 21011G17KT P6SM VCSH BKN060 BKN150
     FM270300 21007KT P6SM BKN070 BKN150=



000
FTUS46 KOTX 261137
TAFPUW
TAF
KPUW 261137Z 2612/2712 24010KT P6SM SCT060 BKN100 BKN200
     FM261700 24011G17KT P6SM BKN070 BKN150
     FM270200 26007KT P6SM SCT080 BKN150
     FM270800 25006KT P6SM VCSH BKN080=



000
FTUS46 KOTX 261137
TAFLWS
TAF
KLWS 261137Z 2612/2712 22004KT P6SM BKN080
     FM262000 32009G17KT P6SM BKN080
     FM270300 30009KT P6SM SCT090
     FM270700 18005KT P6SM BKN080=



000
FTUS46 KOTX 261137
TAFMWH
TAF
KMWH 261137Z 2612/2712 24007KT P6SM SCT100 BKN200
     FM262000 22010G17KT P6SM SCT090 BKN150
     FM270200 26010KT P6SM BKN100=



000
FTUS46 KOTX 261137
TAFCOE
TAF
KCOE 261137Z 2612/2712 18009KT P6SM SCT060 BKN150
     FM262000 22009G15KT P6SM VCSH BKN060 BKN150
     FM270300 22005KT P6SM SCT060 SCT150 BKN200
     FM270600 16006KT P6SM BKN080
      AMD LTD TO CLD AND VIS=



000
FTUS46 KOTX 261137
TAFLWS
TAF
KLWS 261137Z 2612/2712 22004KT P6SM BKN080
     FM262000 32009G17KT P6SM BKN080
     FM270300 30009KT P6SM SCT090
     FM270700 18005KT P6SM BKN080=



000
FTUS46 KOTX 261137
TAFGEG
TAF
KGEG 261137Z 2612/2712 18010KT P6SM SCT070 BKN150
     FM261800 21011G17KT P6SM VCSH BKN060 BKN150
     FM270300 21007KT P6SM BKN070 BKN150=



000
FTUS46 KOTX 261137
TAFSFF
TAF
KSFF 261137Z 2612/2712 19009KT P6SM SCT060 BKN150
     FM261800 21008G16KT P6SM VCSH BKN070 BKN150
     FM270300 21006KT P6SM BKN080 BKN150
     FM270800 VRB03KT P6SM BKN070=



000
FTUS46 KOTX 261137
TAFEAT
TAF
KEAT 261137Z 2612/2712 29010KT P6SM SCT090 BKN150 BKN200
     FM262000 28011KT P6SM VCTS BKN080CB BKN150
     FM270200 30018G25KT P6SM SCT090 BKN140=



000
FTUS46 KOTX 260522
TAFGEG
TAF
KGEG 260522Z 2606/2706 21012KT P6SM SCT080 BKN150
     FM260900 19010KT P6SM SCT080 SCT150 SCT200
     FM262000 21011G16KT P6SM BKN060 BKN150 PROB30 2620/2624 -TSRA
      BKN060CB
     FM270300 22007KT P6SM SCT060 SCT150 BKN200=



000
FTUS46 KOTX 260522
TAFCOE
TAF
KCOE 260522Z 2606/2706 19006KT P6SM SCT070 BKN150
     FM260900 18006KT P6SM SCT060 BKN120 BKN200
     FM262000 22009G14KT P6SM BKN060 BKN150 PROB30 2620/2624 -TSRA
      BKN060CB
     FM270300 22005KT P6SM SCT060 SCT150 BKN200
      AMD LTD TO CLD AND VIS=



000
FTUS46 KOTX 260522
TAFPUW
TAF
KPUW 260522Z 2606/2706 25010KT P6SM SCT080 BKN100 BKN200
     FM261500 24011G16KT P6SM SCT090
     FM262000 24012G16KT P6SM VCSH BKN090 BKN150
     FM270300 26009KT P6SM SCT090 BKN150=



000
FTUS46 KOTX 260522
TAFEAT
TAF
KEAT 260522Z 2606/2706 31012KT P6SM SCT090 BKN150 BKN200
     FM262000 28011G17KT P6SM VCTS BKN090CB BKN150
     FM270300 30018KT P6SM SCT090 BKN150 BKN200=



000
FTUS46 KOTX 260522
TAFSFF
TAF
KSFF 260522Z 2606/2706 24010KT P6SM SCT080 BKN150
     FM260900 19006KT P6SM SCT080 SCT150 SCT200
     FM262000 22010G15KT P6SM BKN070 BKN150 PROB30 2620/2624 -TSRA
      BKN070CB
     FM270300 22006KT P6SM SCT070 SCT150 BKN200=



000
FTUS46 KOTX 260522
TAFMWH
TAF
KMWH 260522Z 2606/2706 24009KT P6SM SCT100 BKN200
     FM262000 22010G15KT P6SM BKN090 BKN150
     FM270300 27012KT P6SM SCT090 SCT150 BKN200=



000
FTUS46 KOTX 260522
TAFLWS
TAF
KLWS 260522Z 2606/2706 32008KT P6SM BKN100 BKN200
     FM261200 22004KT P6SM SCT090
     FM262000 32008G12KT P6SM VCSH BKN090 BKN150
     FM270300 30012KT P6SM SCT090 SCT150 BKN200=



000
FTUS46 KOTX 260522
TAFPUW
TAF
KPUW 260522Z 2606/2706 25010KT P6SM SCT080 BKN100 BKN200
     FM261500 24011G16KT P6SM SCT090
     FM262000 24012G16KT P6SM VCSH BKN090 BKN150
     FM270300 26009KT P6SM SCT090 BKN150=



000
FTUS46 KOTX 260522
TAFPUW
TAF
KPUW 260522Z 2606/2706 25010KT P6SM SCT080 BKN100 BKN200
     FM261500 24011G16KT P6SM SCT090
     FM262000 24012G16KT P6SM VCSH BKN090 BKN150
     FM270300 26009KT P6SM SCT090 BKN150=



000
FTUS46 KOTX 260522
TAFCOE
TAF
KCOE 260522Z 2606/2706 19006KT P6SM SCT070 BKN150
     FM260900 18006KT P6SM SCT060 BKN120 BKN200
     FM262000 22009G14KT P6SM BKN060 BKN150 PROB30 2620/2624 -TSRA
      BKN060CB
     FM270300 22005KT P6SM SCT060 SCT150 BKN200
      AMD LTD TO CLD AND VIS=



000
FTUS46 KOTX 260522
TAFMWH
TAF
KMWH 260522Z 2606/2706 24009KT P6SM SCT100 BKN200
     FM262000 22010G15KT P6SM BKN090 BKN150
     FM270300 27012KT P6SM SCT090 SCT150 BKN200=



000
FTUS46 KOTX 260522
TAFLWS
TAF
KLWS 260522Z 2606/2706 32008KT P6SM BKN100 BKN200
     FM261200 22004KT P6SM SCT090
     FM262000 32008G12KT P6SM VCSH BKN090 BKN150
     FM270300 30012KT P6SM SCT090 SCT150 BKN200=



000
FTUS46 KOTX 260522
TAFGEG
TAF
KGEG 260522Z 2606/2706 21012KT P6SM SCT080 BKN150
     FM260900 19010KT P6SM SCT080 SCT150 SCT200
     FM262000 21011G16KT P6SM BKN060 BKN150 PROB30 2620/2624 -TSRA
      BKN060CB
     FM270300 22007KT P6SM SCT060 SCT150 BKN200=



000
FTUS46 KOTX 260522
TAFEAT
TAF
KEAT 260522Z 2606/2706 31012KT P6SM SCT090 BKN150 BKN200
     FM262000 28011G17KT P6SM VCTS BKN090CB BKN150
     FM270300 30018KT P6SM SCT090 BKN150 BKN200=



000
FTUS46 KOTX 260522
TAFSFF
TAF
KSFF 260522Z 2606/2706 24010KT P6SM SCT080 BKN150
     FM260900 19006KT P6SM SCT080 SCT150 SCT200
     FM262000 22010G15KT P6SM BKN070 BKN150 PROB30 2620/2624 -TSRA
      BKN070CB
     FM270300 22006KT P6SM SCT070 SCT150 BKN200=



000
FTUS46 KOTX 252320
TAFEAT
TAF
KEAT 252320Z 2600/2624 30017G25KT P6SM BKN090 BKN120 BKN200
     FM260500 31010KT P6SM SCT090 BKN150
     FM262000 28011G17KT P6SM VCTS BKN090CB BKN150=



000
FTUS46 KOTX 252320
TAFMWH
TAF
KMWH 252320Z 2600/2624 24016G24KT P6SM BKN090
     FM260400 24007KT P6SM SCT100
     FM262000 22010G15KT P6SM BKN090 BKN150=



000
FTUS46 KOTX 252320
TAFSFF
TAF
KSFF 252320Z 2600/2624 24012G19KT P6SM -TSRA SCT050 BKN070CB OVC120
     FM260300 22006KT P6SM BKN080 OVC120
     FM260900 19006KT P6SM SCT080 SCT150 SCT200
     FM262000 22010G15KT P6SM BKN070 BKN150 PROB30 2620/2624 -TSRA
      BKN070CB=



000
FTUS46 KOTX 252320
TAFPUW
TAF
KPUW 252320Z 2600/2624 25016G25KT P6SM BKN080 OVC120
     FM260300 25008KT P6SM BKN080 OVC100
     FM261500 24011G16KT P6SM SCT090
     FM262000 24012G16KT P6SM VCSH BKN090 BKN150=



000
FTUS46 KOTX 252320
TAFGEG
TAF
KGEG 252320Z 2600/2624 22016G25KT P6SM -TSRA SCT050 BKN070CB OVC120
     FM260300 21011KT P6SM BKN080 OVC150
     FM260900 19010KT P6SM SCT080 SCT150 SCT200
     FM262000 21011G16KT P6SM BKN060 BKN150 PROB30 2620/2624 -TSRA
      BKN060CB=



000
FTUS46 KOTX 252320
TAFCOE
TAF
KCOE 252320Z 2600/2624 22016G25KT P6SM -TSRA BKN060CB OVC120
     FM260300 19008KT P6SM BKN060 OVC120
     FM260900 18006KT P6SM SCT060 BKN120 BKN200
     FM262000 22009G14KT P6SM BKN060 BKN150 PROB30 2620/2624 -TSRA
      BKN060CB
      AMD LTD TO CLD AND VIS=



000
FTUS46 KOTX 252320
TAFEAT
TAF
KEAT 252320Z 2600/2624 30017G25KT P6SM BKN090 BKN120 BKN200
     FM260500 31010KT P6SM SCT090 BKN150
     FM262000 28011G17KT P6SM VCTS BKN090CB BKN150=



000
FTUS46 KOTX 252320
TAFSFF
TAF
KSFF 252320Z 2600/2624 24012G19KT P6SM -TSRA SCT050 BKN070CB OVC120
     FM260300 22006KT P6SM BKN080 OVC120
     FM260900 19006KT P6SM SCT080 SCT150 SCT200
     FM262000 22010G15KT P6SM BKN070 BKN150 PROB30 2620/2624 -TSRA
      BKN070CB=



000
FTUS46 KOTX 252320
TAFLWS
TAF
KLWS 252320Z 2600/2624 32016G22KT P6SM BKN090 OVC150
     FM260300 32008KT P6SM OVC090
     FM261200 22004KT P6SM SCT090
     FM262000 32008G12KT P6SM VCSH BKN090 BKN150=



000
FTUS46 KOTX 252320
TAFMWH
TAF
KMWH 252320Z 2600/2624 24016G24KT P6SM BKN090
     FM260400 24007KT P6SM SCT100
     FM262000 22010G15KT P6SM BKN090 BKN150=



000
FTUS46 KOTX 252320
TAFCOE
TAF
KCOE 252320Z 2600/2624 22016G25KT P6SM -TSRA BKN060CB OVC120
     FM260300 19008KT P6SM BKN060 OVC120
     FM260900 18006KT P6SM SCT060 BKN120 BKN200
     FM262000 22009G14KT P6SM BKN060 BKN150 PROB30 2620/2624 -TSRA
      BKN060CB
      AMD LTD TO CLD AND VIS=



000
FTUS46 KOTX 252320
TAFEAT
TAF
KEAT 252320Z 2600/2624 30017G25KT P6SM BKN090 BKN120 BKN200
     FM260500 31010KT P6SM SCT090 BKN150
     FM262000 28011G17KT P6SM VCTS BKN090CB BKN150=



000
FTUS46 KOTX 252320
TAFGEG
TAF
KGEG 252320Z 2600/2624 22016G25KT P6SM -TSRA SCT050 BKN070CB OVC120
     FM260300 21011KT P6SM BKN080 OVC150
     FM260900 19010KT P6SM SCT080 SCT150 SCT200
     FM262000 21011G16KT P6SM BKN060 BKN150 PROB30 2620/2624 -TSRA
      BKN060CB=



000
FTUS46 KOTX 252320
TAFLWS
TAF
KLWS 252320Z 2600/2624 32016G22KT P6SM BKN090 OVC150
     FM260300 32008KT P6SM OVC090
     FM261200 22004KT P6SM SCT090
     FM262000 32008G12KT P6SM VCSH BKN090 BKN150=



000
FTUS46 KOTX 252320
TAFPUW
TAF
KPUW 252320Z 2600/2624 25016G25KT P6SM BKN080 OVC120
     FM260300 25008KT P6SM BKN080 OVC100
     FM261500 24011G16KT P6SM SCT090
     FM262000 24012G16KT P6SM VCSH BKN090 BKN150=



    US Dept of Commerce
    National Oceanic and Atmospheric Administration
    National Weather Service
    1325 East West Highway
    Silver Spring, MD 20910
    Page Author: NWS Internet Services Team
Disclaimer
Information Quality
Credits
Glossary
Privacy Policy
Freedom of Information Act (FOIA)
About Us
Career Opportunities